Погода Пайлонна 2 недели

Бени, Боливия

14 - 27 июля
  • 14июля
    Сегодня
    +12°
    +25°
    Небольшая облачность
    ВремяПогодаТемператураВлажностьДавлениеВетер, м/сВероятность осадков
    02:00Практически безоблачно+16°C53 %748 мм4.0 м/с5 %
    05:00Ясно и безоблачно+15°C52 %748 мм4.1 м/с5 %
    08:00Практически безоблачно+12°C49 %749 мм2.1 м/с5 %
    11:00Небольшая облачность+19°C40 %750 мм3.6 м/с5 %
    14:00Небольшая облачность+24°C37 %747 мм2.8 м/с5 %
    17:00Облачно с прояснениями+24°C41 %746 мм2.5 м/с5 %
    20:00Облачно с прояснениями+20°C53 %746 мм2.8 м/с5 %
    23:00Облачно с прояснениями+18°C54 %747 мм3.8 м/с5 %
  • 15июля
    Понедельник
    +11°
    +26°
    Пасмурно, сплошная облачность
    ВремяПогодаТемператураВлажностьДавлениеВетер, м/сВероятность осадков
    02:00Практически безоблачно+15°C53 %747 мм3.9 м/с5 %
    05:00Ясно и безоблачно+13°C51 %747 мм3.5 м/с5 %
    08:00Небольшая облачность+13°C48 %749 мм1.6 м/с5 %
    11:00Облачно с прояснениями+21°C41 %750 мм3.4 м/с5 %
    14:00Пасмурно, сплошная облачность+24°C40 %748 мм2.6 м/с5 %
    17:00Ясно и безоблачно+25°C41 %747 мм2.4 м/с5 %
    20:00Ясно и безоблачно+20°C51 %747 мм3.2 м/с5 %
    23:00Ясно и безоблачно+18°C53 %748 мм3.4 м/с5 %
  • 16июля
    Вторник
    +12°
    +29°
    Ясно и безоблачно
    ВремяПогодаТемператураВлажностьДавлениеВетер, м/сВероятность осадков
    02:00Ясно и безоблачно+15°C52 %747 мм3.2 м/с5 %
    05:00Ясно и безоблачно+13°C51 %747 мм3.1 м/с5 %
    08:00Небольшая облачность+13°C49 %749 мм1.1 м/с5 %
    11:00Небольшая облачность+22°C38 %749 мм2.6 м/с5 %
    14:00Ясно и безоблачно+27°C37 %747 мм1.8 м/с5 %
    17:00Ясно и безоблачно+28°C41 %746 мм1.2 м/с5 %
    20:00Ясно и безоблачно+22°C56 %746 мм2.4 м/с5 %
    23:00Ясно и безоблачно+19°C65 %747 мм2.0 м/с5 %
  • 17июля
    Среда
    +14°
    +30°
    Ясно и безоблачно
    ВремяПогодаТемператураВлажностьДавлениеВетер, м/сВероятность осадков
    02:00Ясно и безоблачно+16°C71 %746 мм2.3 м/с5 %
    05:00Ясно и безоблачно+14°C76 %746 мм2.0 м/с5 %
    08:00Ясно и безоблачно+14°C70 %748 мм0.7 м/с5 %
    11:00Ясно и безоблачно+25°C46 %749 мм2.3 м/с5 %
    14:00Ясно и безоблачно+30°C37 %746 мм1.9 м/с5 %
    17:00Ясно и безоблачно+30°C40 %745 мм1.1 м/с5 %
    20:00Ясно и безоблачно+23°C61 %745 мм2.0 м/с5 %
    23:00Ясно и безоблачно+20°C69 %745 мм1.9 м/с5 %
  • 18июля
    Четверг
    +15°
    +33°
    Ясно и безоблачно
    ВремяПогодаТемператураВлажностьДавлениеВетер, м/сВероятность осадков
    02:00Ясно и безоблачно+17°C76 %744 мм1.9 м/с5 %
    05:00Ясно и безоблачно+15°C84 %744 мм1.9 м/с5 %
    08:00Ясно и безоблачно+17°C74 %746 мм0.0 м/с5 %
    11:00Ясно и безоблачно+28°C43 %746 мм0.6 м/с5 %
    14:00Ясно и безоблачно+32°C34 %744 мм1.3 м/с5 %
    17:00Ясно и безоблачно+32°C38 %743 мм0.6 м/с5 %
    20:00Ясно и безоблачно+26°C56 %743 мм1.5 м/с5 %
    23:00Ясно и безоблачно+24°C60 %744 мм0.5 м/с5 %
Мы используем cookies
Соглашаюсь